UAL1149 KSFO-KEWR
Flight info
| Callsign | UAL1149 |
|---|---|
| Flight time | 4h 37m |
| Altitude | 35000 |
| Route | SNTNA2 TIPRE Q126 GAROT EKR KD63U FONTO KD66A OVR DSM EVOTE NELLS KEEHO J584 SLT FQM3 |
| Aircraft | B77W/H-SDE1E2E3FGHIJ2J3J4J5M1RWXY/LB1D1 |
Departure
| Time | 2026-04-20 14:13 |
|---|---|
| Airport | San Francisco International Airport (KSFO) |
Arrival
| Time | 2026-04-20 18:50 |
|---|---|
| Airport | Newark Liberty International Airport (KEWR) |
| Time | Latitude | Longitude | Altitude | Speed | Heading |
|---|---|---|---|---|---|
| 2026-04-20 13:19 | 37.62135 | -122.38916 | 38 ft | 0 kts | 208° |
| 2026-04-20 13:55 | 37.62136 | -122.38915 | 38 ft | 1 kts | 208° |
| 2026-04-20 13:55 | 37.62149 | -122.38907 | 38 ft | 2 kts | 208° |
| 2026-04-20 13:56 | 37.62162 | -122.38898 | 38 ft | 2 kts | 208° |
| 2026-04-20 13:56 | 37.62172 | -122.38892 | 38 ft | 0 kts | 208° |
| 2026-04-20 13:56 | 37.62184 | -122.38884 | 38 ft | 2 kts | 199° |
| 2026-04-20 13:56 | 37.62199 | -122.38880 | 38 ft | 2 kts | 185° |
| 2026-04-20 13:57 | 37.62214 | -122.38880 | 38 ft | 2 kts | 173° |
| 2026-04-20 13:57 | 37.62229 | -122.38884 | 38 ft | 2 kts | 161° |
| 2026-04-20 13:57 | 37.62243 | -122.38891 | 37 ft | 2 kts | 149° |
| 2026-04-20 13:57 | 37.62255 | -122.38902 | 37 ft | 2 kts | 138° |
| 2026-04-20 13:58 | 37.62265 | -122.38915 | 37 ft | 2 kts | 126° |
| 2026-04-20 13:58 | 37.62271 | -122.38926 | 37 ft | 0 kts | 118° |
| 2026-04-20 13:58 | 37.62272 | -122.38929 | 37 ft | 0 kts | 117° |
| 2026-04-20 14:01 | 37.62268 | -122.38920 | 37 ft | 3 kts | 119° |
| 2026-04-20 14:02 | 37.62249 | -122.38876 | 37 ft | 6 kts | 118° |
| 2026-04-20 14:02 | 37.62228 | -122.38827 | 37 ft | 6 kts | 118° |
| 2026-04-20 14:02 | 37.62207 | -122.38779 | 38 ft | 6 kts | 118° |
| 2026-04-20 14:02 | 37.62186 | -122.38726 | 38 ft | 8 kts | 117° |
| 2026-04-20 14:03 | 37.62159 | -122.38661 | 38 ft | 9 kts | 117° |
| 2026-04-20 14:03 | 37.62127 | -122.38584 | 38 ft | 10 kts | 118° |
| 2026-04-20 14:03 | 37.62089 | -122.38496 | 38 ft | 12 kts | 118° |
| 2026-04-20 14:03 | 37.62047 | -122.38397 | 38 ft | 13 kts | 118° |
| 2026-04-20 14:04 | 37.62001 | -122.38287 | 38 ft | 14 kts | 118° |
| 2026-04-20 14:04 | 37.61952 | -122.38171 | 38 ft | 15 kts | 118° |
| 2026-04-20 14:04 | 37.61902 | -122.38052 | 38 ft | 14 kts | 118° |
| 2026-04-20 14:04 | 37.61854 | -122.37936 | 37 ft | 15 kts | 116° |
| 2026-04-20 14:05 | 37.61812 | -122.37811 | 34 ft | 16 kts | 111° |
| 2026-04-20 14:05 | 37.61769 | -122.37672 | 32 ft | 17 kts | 111° |
| 2026-04-20 14:05 | 37.61722 | -122.37524 | 27 ft | 19 kts | 115° |
| 2026-04-20 14:05 | 37.61660 | -122.37370 | 22 ft | 20 kts | 118° |
| 2026-04-20 14:06 | 37.61594 | -122.37215 | 21 ft | 19 kts | 118° |
| 2026-04-20 14:06 | 37.61553 | -122.37116 | 18 ft | 13 kts | 117° |
| 2026-04-20 14:06 | 37.61510 | -122.37014 | 18 ft | 12 kts | 118° |
| 2026-04-20 14:06 | 37.61468 | -122.36915 | 18 ft | 12 kts | 117° |
| 2026-04-20 14:07 | 37.61428 | -122.36818 | 18 ft | 12 kts | 118° |
| 2026-04-20 14:07 | 37.61412 | -122.36784 | 18 ft | 4 kts | 134° |
| 2026-04-20 14:07 | 37.61362 | -122.36747 | 18 ft | 9 kts | 142° |
| 2026-04-20 14:07 | 37.61317 | -122.36663 | 18 ft | 12 kts | 118° |
| 2026-04-20 14:08 | 37.61278 | -122.36572 | 18 ft | 11 kts | 118° |
| 2026-04-20 14:08 | 37.61238 | -122.36476 | 17 ft | 12 kts | 118° |
| 2026-04-20 14:08 | 37.61195 | -122.36375 | 16 ft | 13 kts | 118° |
| 2026-04-20 14:08 | 37.61151 | -122.36269 | 15 ft | 13 kts | 118° |
| 2026-04-20 14:09 | 37.61108 | -122.36167 | 15 ft | 13 kts | 118° |
| 2026-04-20 14:09 | 37.61066 | -122.36066 | 15 ft | 12 kts | 118° |
| 2026-04-20 14:09 | 37.61054 | -122.35964 | 15 ft | 8 kts | 75° |
| 2026-04-20 14:09 | 37.61077 | -122.35920 | 15 ft | 4 kts | 36° |
| 2026-04-20 14:10 | 37.61086 | -122.35913 | 15 ft | 0 kts | 31° |
| 2026-04-20 14:11 | 37.61109 | -122.35895 | 15 ft | 8 kts | 31° |
| 2026-04-20 14:12 | 37.61165 | -122.35854 | 15 ft | 5 kts | 25° |
| 2026-04-20 14:12 | 37.61183 | -122.35863 | 15 ft | 3 kts | 304° |
| 2026-04-20 14:12 | 37.61201 | -122.35907 | 15 ft | 12 kts | 297° |
| 2026-04-20 14:12 | 37.61326 | -122.36208 | 16 ft | 81 kts | 298° |
| 2026-04-20 14:13 | 37.61729 | -122.37167 | 23 ft | 167 kts | 298° |
| 2026-04-20 14:13 | 37.62373 | -122.38662 | 496 ft | 207 kts | 298° |
| 2026-04-20 14:13 | 37.63094 | -122.40277 | 1590 ft | 215 kts | 296° |
| 2026-04-20 14:13 | 37.63804 | -122.41876 | 2506 ft | 212 kts | 294° |
| 2026-04-20 14:14 | 37.64536 | -122.43599 | 2955 ft | 235 kts | 293° |
| 2026-04-20 14:14 | 37.65333 | -122.45490 | 3012 ft | 261 kts | 293° |
| 2026-04-20 14:14 | 37.66224 | -122.47598 | 3267 ft | 284 kts | 293° |
| 2026-04-20 14:14 | 37.67137 | -122.49703 | 4615 ft | 275 kts | 297° |
| 2026-04-20 14:15 | 37.68448 | -122.51457 | 5633 ft | 286 kts | 322° |
| 2026-04-20 14:15 | 37.70328 | -122.52380 | 6461 ft | 301 kts | 349° |
| 2026-04-20 14:15 | 37.72407 | -122.52591 | 7414 ft | 304 kts | 357° |
| 2026-04-20 14:15 | 37.74536 | -122.52649 | 8291 ft | 310 kts | 358° |
| 2026-04-20 14:16 | 37.76712 | -122.52702 | 9121 ft | 316 kts | 0° |
| 2026-04-20 14:16 | 37.78870 | -122.52173 | 9915 ft | 321 kts | 26° |
| 2026-04-20 14:16 | 37.80794 | -122.50716 | 10537 ft | 330 kts | 42° |
| 2026-04-20 14:16 | 37.82409 | -122.48621 | 10967 ft | 344 kts | 59° |
| 2026-04-20 14:17 | 37.83569 | -122.45924 | 11424 ft | 356 kts | 75° |
| 2026-04-20 14:17 | 37.84337 | -122.42895 | 11941 ft | 371 kts | 80° |
| 2026-04-20 14:17 | 37.85050 | -122.39697 | 12651 ft | 383 kts | 79° |
| 2026-04-20 14:17 | 37.85825 | -122.36481 | 13538 ft | 391 kts | 78° |
| 2026-04-20 14:18 | 37.86652 | -122.33199 | 14537 ft | 396 kts | 78° |
| 2026-04-20 14:18 | 37.87504 | -122.29885 | 15441 ft | 403 kts | 78° |
| 2026-04-20 14:18 | 37.88397 | -122.26463 | 16245 ft | 413 kts | 77° |
| 2026-04-20 14:18 | 37.89296 | -122.23046 | 17081 ft | 421 kts | 77° |
| 2026-04-20 14:19 | 37.90228 | -122.19527 | 17954 ft | 427 kts | 77° |
| 2026-04-20 14:19 | 37.91179 | -122.15947 | 18817 ft | 433 kts | 77° |
| 2026-04-20 14:19 | 37.92143 | -122.12314 | 19520 ft | 443 kts | 77° |
| 2026-04-20 14:19 | 37.93129 | -122.08603 | 20222 ft | 452 kts | 77° |
| 2026-04-20 14:20 | 37.94144 | -122.04787 | 20950 ft | 459 kts | 77° |
| 2026-04-20 14:20 | 37.95157 | -122.00977 | 21628 ft | 467 kts | 77° |
| 2026-04-20 14:20 | 37.96198 | -121.97053 | 22283 ft | 475 kts | 77° |
| 2026-04-20 14:20 | 37.97248 | -121.93090 | 22925 ft | 482 kts | 77° |
| 2026-04-20 14:21 | 37.98318 | -121.89053 | 23581 ft | 488 kts | 77° |
| 2026-04-20 14:21 | 37.99398 | -121.84970 | 24252 ft | 493 kts | 76° |
| 2026-04-20 14:21 | 38.00494 | -121.80822 | 24930 ft | 498 kts | 76° |
| 2026-04-20 14:21 | 38.01588 | -121.76671 | 25560 ft | 504 kts | 76° |
| 2026-04-20 14:22 | 38.02708 | -121.72420 | 26235 ft | 509 kts | 76° |
| 2026-04-20 14:22 | 38.03822 | -121.68183 | 26825 ft | 516 kts | 75° |
| 2026-04-20 14:22 | 38.04960 | -121.63844 | 27450 ft | 521 kts | 75° |
| 2026-04-20 14:22 | 38.06101 | -121.59487 | 28023 ft | 528 kts | 75° |
| 2026-04-20 14:23 | 38.07263 | -121.55045 | 28623 ft | 534 kts | 74° |
| 2026-04-20 14:23 | 38.08427 | -121.50585 | 29274 ft | 539 kts | 74° |
| 2026-04-20 14:23 | 38.09615 | -121.46030 | 29938 ft | 543 kts | 74° |
| 2026-04-20 14:23 | 38.10794 | -121.41499 | 30749 ft | 544 kts | 74° |
| 2026-04-20 14:24 | 38.11973 | -121.36964 | 31688 ft | 541 kts | 74° |
| 2026-04-20 14:24 | 38.13132 | -121.32501 | 32689 ft | 534 kts | 75° |
| 2026-04-20 14:24 | 38.14287 | -121.28039 | 33552 ft | 530 kts | 75° |
| 2026-04-20 14:24 | 38.15445 | -121.23557 | 34397 ft | 527 kts | 75° |
| 2026-04-20 14:25 | 38.16583 | -121.19144 | 34915 ft | 529 kts | 75° |
| 2026-04-20 14:25 | 38.17724 | -121.14709 | 34938 ft | 531 kts | 75° |
| 2026-04-20 14:25 | 38.19991 | -121.05871 | 34937 ft | 527 kts | 76° |
| 2026-04-20 14:26 | 38.21542 | -120.96831 | 34942 ft | 526 kts | 83° |
| 2026-04-20 14:26 | 38.22838 | -120.87740 | 34952 ft | 524 kts | 83° |
| 2026-04-20 14:27 | 38.24123 | -120.78660 | 34948 ft | 524 kts | 83° |
| 2026-04-20 14:27 | 38.25399 | -120.69592 | 34943 ft | 523 kts | 83° |
| 2026-04-20 14:28 | 38.26673 | -120.60485 | 34943 ft | 523 kts | 83° |
| 2026-04-20 14:28 | 38.27935 | -120.51414 | 34978 ft | 521 kts | 83° |
| 2026-04-20 14:29 | 38.29178 | -120.42417 | 35021 ft | 522 kts | 83° |
| 2026-04-20 14:29 | 38.30423 | -120.33354 | 35037 ft | 521 kts | 83° |
| 2026-04-20 14:30 | 38.31665 | -120.24267 | 35050 ft | 520 kts | 83° |
| 2026-04-20 14:30 | 38.32891 | -120.15237 | 35061 ft | 519 kts | 83° |
| 2026-04-20 14:31 | 38.34114 | -120.06175 | 35064 ft | 522 kts | 83° |
| 2026-04-20 14:31 | 38.35330 | -119.97111 | 35069 ft | 520 kts | 83° |
| 2026-04-20 14:32 | 38.36533 | -119.88094 | 35079 ft | 519 kts | 83° |
| 2026-04-20 14:32 | 38.37737 | -119.79009 | 35094 ft | 520 kts | 83° |
| 2026-04-20 14:33 | 38.38928 | -119.69967 | 35105 ft | 519 kts | 82° |
| 2026-04-20 14:33 | 38.40108 | -119.60953 | 35106 ft | 521 kts | 82° |
| 2026-04-20 14:34 | 38.41287 | -119.51888 | 35107 ft | 518 kts | 82° |
| 2026-04-20 14:34 | 38.42464 | -119.42788 | 35105 ft | 520 kts | 82° |
| 2026-04-20 14:35 | 38.43621 | -119.33778 | 35105 ft | 520 kts | 83° |
| 2026-04-20 14:35 | 38.44783 | -119.24676 | 35100 ft | 520 kts | 83° |
| 2026-04-20 14:36 | 38.45937 | -119.15582 | 35103 ft | 521 kts | 82° |
| 2026-04-20 14:36 | 38.47080 | -119.06512 | 35101 ft | 520 kts | 82° |
| 2026-04-20 14:37 | 38.48219 | -118.97413 | 35100 ft | 520 kts | 82° |
| 2026-04-20 14:37 | 38.49350 | -118.88326 | 35092 ft | 520 kts | 82° |
| 2026-04-20 14:38 | 38.50473 | -118.79235 | 35089 ft | 521 kts | 82° |
| 2026-04-20 14:38 | 38.51588 | -118.70158 | 35072 ft | 518 kts | 82° |
| 2026-04-20 14:39 | 38.52695 | -118.61088 | 35052 ft | 520 kts | 82° |
| 2026-04-20 14:39 | 38.53794 | -118.52014 | 35052 ft | 519 kts | 82° |
| 2026-04-20 14:40 | 38.54891 | -118.42902 | 35082 ft | 518 kts | 82° |
| 2026-04-20 14:40 | 38.55970 | -118.33879 | 35092 ft | 517 kts | 82° |
| 2026-04-20 14:41 | 38.57050 | -118.24781 | 35095 ft | 518 kts | 83° |
| 2026-04-20 14:41 | 38.58113 | -118.15779 | 35101 ft | 516 kts | 82° |
| 2026-04-20 14:42 | 38.59179 | -118.06694 | 35109 ft | 518 kts | 82° |
| 2026-04-20 14:42 | 38.60233 | -117.97652 | 35114 ft | 516 kts | 82° |
| 2026-04-20 14:43 | 38.61277 | -117.88639 | 35115 ft | 517 kts | 82° |
| 2026-04-20 14:43 | 38.62317 | -117.79592 | 35113 ft | 516 kts | 82° |
| 2026-04-20 14:44 | 38.63349 | -117.70551 | 35117 ft | 516 kts | 82° |
| 2026-04-20 14:44 | 38.64376 | -117.61486 | 35126 ft | 517 kts | 82° |
| 2026-04-20 14:45 | 38.65397 | -117.52415 | 35136 ft | 517 kts | 82° |
| 2026-04-20 14:45 | 38.66411 | -117.43342 | 35140 ft | 516 kts | 82° |
| 2026-04-20 14:46 | 38.67420 | -117.34246 | 35143 ft | 516 kts | 83° |
| 2026-04-20 14:46 | 38.68552 | -117.25230 | 35146 ft | 514 kts | 77° |
| 2026-04-20 14:47 | 38.70122 | -117.16383 | 35152 ft | 514 kts | 77° |
| 2026-04-20 14:48 | 38.72451 | -117.03023 | 35160 ft | 513 kts | 77° |
| 2026-04-20 14:48 | 38.73967 | -116.94163 | 35164 ft | 514 kts | 77° |
| 2026-04-20 14:49 | 38.75481 | -116.85226 | 35160 ft | 512 kts | 77° |
| 2026-04-20 14:49 | 38.76976 | -116.76330 | 35165 ft | 514 kts | 77° |
| 2026-04-20 14:50 | 38.78466 | -116.67412 | 35165 ft | 511 kts | 77° |
| 2026-04-20 14:50 | 38.79938 | -116.58549 | 35172 ft | 513 kts | 77° |
| 2026-04-20 14:51 | 38.81409 | -116.49643 | 35172 ft | 513 kts | 77° |
| 2026-04-20 14:51 | 38.82869 | -116.40761 | 35180 ft | 511 kts | 77° |
| 2026-04-20 14:52 | 38.84352 | -116.31828 | 35178 ft | 513 kts | 77° |
| 2026-04-20 14:52 | 38.85975 | -116.22971 | 35190 ft | 511 kts | 76° |
| 2026-04-20 14:53 | 38.87591 | -116.14155 | 35202 ft | 510 kts | 76° |
| 2026-04-20 14:53 | 38.89204 | -116.05312 | 35196 ft | 511 kts | 76° |
| 2026-04-20 14:54 | 38.90812 | -115.96460 | 35193 ft | 511 kts | 76° |
| 2026-04-20 14:54 | 38.92448 | -115.87409 | 35198 ft | 529 kts | 76° |
| 2026-04-20 14:55 | 38.94085 | -115.78307 | 35198 ft | 527 kts | 76° |
| 2026-04-20 14:55 | 38.95723 | -115.69162 | 35201 ft | 527 kts | 76° |
| 2026-04-20 14:56 | 38.97359 | -115.59975 | 35205 ft | 525 kts | 76° |
| 2026-04-20 14:56 | 38.98971 | -115.50884 | 35214 ft | 526 kts | 76° |
| 2026-04-20 14:57 | 39.00590 | -115.41708 | 35217 ft | 526 kts | 76° |
| 2026-04-20 14:57 | 39.02204 | -115.32511 | 35210 ft | 524 kts | 76° |
| 2026-04-20 14:58 | 39.03802 | -115.23367 | 35205 ft | 526 kts | 76° |
| 2026-04-20 14:58 | 39.05385 | -115.14265 | 35205 ft | 524 kts | 76° |
| 2026-04-20 14:59 | 39.06965 | -115.05130 | 35205 ft | 525 kts | 76° |
| 2026-04-20 14:59 | 39.08536 | -114.96006 | 35210 ft | 523 kts | 76° |
| 2026-04-20 15:00 | 39.10095 | -114.86903 | 35226 ft | 523 kts | 76° |
| 2026-04-20 15:00 | 39.11646 | -114.77806 | 35236 ft | 522 kts | 76° |
| 2026-04-20 15:01 | 39.13192 | -114.68690 | 35236 ft | 524 kts | 76° |
| 2026-04-20 15:01 | 39.14730 | -114.59578 | 35225 ft | 522 kts | 76° |
| 2026-04-20 15:02 | 39.16271 | -114.50398 | 35215 ft | 524 kts | 76° |
| 2026-04-20 15:02 | 39.17785 | -114.41335 | 35220 ft | 522 kts | 76° |
| 2026-04-20 15:03 | 39.19307 | -114.32178 | 35241 ft | 522 kts | 76° |
| 2026-04-20 15:03 | 39.20818 | -114.23040 | 35259 ft | 522 kts | 76° |
| 2026-04-20 15:04 | 39.22316 | -114.13934 | 35238 ft | 520 kts | 76° |
| 2026-04-20 15:04 | 39.23809 | -114.04811 | 35216 ft | 522 kts | 76° |
| 2026-04-20 15:05 | 39.25291 | -113.95708 | 35205 ft | 520 kts | 76° |
| 2026-04-20 15:05 | 39.26757 | -113.86658 | 35209 ft | 519 kts | 76° |
| 2026-04-20 15:06 | 39.28219 | -113.77586 | 35216 ft | 518 kts | 76° |
| 2026-04-20 15:06 | 39.29679 | -113.68479 | 35213 ft | 518 kts | 76° |
| 2026-04-20 15:07 | 39.31123 | -113.59424 | 35210 ft | 517 kts | 76° |
| 2026-04-20 15:07 | 39.32563 | -113.50342 | 35191 ft | 515 kts | 76° |
| 2026-04-20 15:08 | 39.33984 | -113.41335 | 35182 ft | 515 kts | 76° |
| 2026-04-20 15:08 | 39.35394 | -113.32355 | 35186 ft | 513 kts | 76° |
| 2026-04-20 15:09 | 39.36808 | -113.23301 | 35196 ft | 514 kts | 76° |
| 2026-04-20 15:09 | 39.38209 | -113.14277 | 35198 ft | 512 kts | 76° |
| 2026-04-20 15:10 | 39.39605 | -113.05246 | 35202 ft | 514 kts | 76° |
| 2026-04-20 15:10 | 39.40987 | -112.96245 | 35190 ft | 511 kts | 76° |
| 2026-04-20 15:11 | 39.42353 | -112.87305 | 35194 ft | 510 kts | 76° |
| 2026-04-20 15:11 | 39.43716 | -112.78342 | 35183 ft | 511 kts | 76° |
| 2026-04-20 15:12 | 39.45071 | -112.69374 | 35189 ft | 509 kts | 76° |
| 2026-04-20 15:12 | 39.46426 | -112.60363 | 35149 ft | 511 kts | 76° |
| 2026-04-20 15:13 | 39.47768 | -112.51392 | 35132 ft | 510 kts | 76° |
| 2026-04-20 15:13 | 39.49096 | -112.42455 | 35186 ft | 508 kts | 76° |
| 2026-04-20 15:14 | 39.50422 | -112.33496 | 35209 ft | 508 kts | 77° |
| 2026-04-20 15:14 | 39.51743 | -112.24513 | 35213 ft | 507 kts | 76° |
| 2026-04-20 15:15 | 39.53049 | -112.15585 | 35226 ft | 508 kts | 76° |
| 2026-04-20 15:15 | 39.54350 | -112.06640 | 35232 ft | 506 kts | 76° |
| 2026-04-20 15:16 | 39.55642 | -111.97705 | 35247 ft | 505 kts | 76° |
| 2026-04-20 15:16 | 39.56920 | -111.88821 | 35258 ft | 506 kts | 76° |
| 2026-04-20 15:17 | 39.58198 | -111.79884 | 35276 ft | 507 kts | 76° |
| 2026-04-20 15:17 | 39.59471 | -111.70934 | 35295 ft | 507 kts | 77° |
| 2026-04-20 15:18 | 39.60739 | -111.61968 | 35283 ft | 506 kts | 77° |
| 2026-04-20 15:18 | 39.61996 | -111.53027 | 35283 ft | 505 kts | 77° |
| 2026-04-20 15:19 | 39.63242 | -111.44112 | 35299 ft | 505 kts | 77° |
| 2026-04-20 15:19 | 39.64483 | -111.35181 | 35324 ft | 507 kts | 76° |
| 2026-04-20 15:20 | 39.65725 | -111.26190 | 35351 ft | 505 kts | 77° |
| 2026-04-20 15:20 | 39.66954 | -111.17246 | 35360 ft | 507 kts | 77° |
| 2026-04-20 15:21 | 39.68177 | -111.08286 | 35369 ft | 506 kts | 77° |
| 2026-04-20 15:21 | 39.69395 | -110.99315 | 35360 ft | 507 kts | 77° |
| 2026-04-20 15:22 | 39.70614 | -110.90283 | 35344 ft | 507 kts | 77° |
| 2026-04-20 15:22 | 39.71816 | -110.81319 | 35307 ft | 510 kts | 78° |
| 2026-04-20 15:23 | 39.73020 | -110.72285 | 35307 ft | 508 kts | 78° |
| 2026-04-20 15:23 | 39.74220 | -110.63237 | 35327 ft | 511 kts | 78° |
| 2026-04-20 15:24 | 39.75418 | -110.54132 | 35352 ft | 512 kts | 78° |
| 2026-04-20 15:24 | 39.76605 | -110.45069 | 35354 ft | 513 kts | 78° |
| 2026-04-20 15:25 | 39.77794 | -110.35927 | 35331 ft | 514 kts | 79° |
| 2026-04-20 15:25 | 39.78966 | -110.26856 | 35300 ft | 513 kts | 80° |
| 2026-04-20 15:26 | 39.80140 | -110.17715 | 35269 ft | 512 kts | 80° |
| 2026-04-20 15:26 | 39.81308 | -110.08559 | 35256 ft | 513 kts | 80° |
| 2026-04-20 15:27 | 39.82457 | -109.99501 | 35255 ft | 512 kts | 80° |
| 2026-04-20 15:27 | 39.83610 | -109.90344 | 35252 ft | 512 kts | 81° |
| 2026-04-20 15:28 | 39.84753 | -109.81210 | 35220 ft | 512 kts | 81° |
| 2026-04-20 15:28 | 39.85891 | -109.72059 | 35254 ft | 515 kts | 81° |
| 2026-04-20 15:29 | 39.87019 | -109.62929 | 35259 ft | 514 kts | 81° |
| 2026-04-20 15:29 | 39.88142 | -109.53773 | 35263 ft | 514 kts | 81° |
| 2026-04-20 15:30 | 39.89261 | -109.44601 | 35262 ft | 515 kts | 81° |
| 2026-04-20 15:30 | 39.90377 | -109.35384 | 35263 ft | 516 kts | 81° |
| 2026-04-20 15:31 | 39.91479 | -109.26214 | 35261 ft | 514 kts | 81° |
| 2026-04-20 15:31 | 39.92576 | -109.17042 | 35258 ft | 516 kts | 81° |
| 2026-04-20 15:32 | 39.93668 | -109.07832 | 35246 ft | 516 kts | 81° |
| 2026-04-20 15:32 | 39.94752 | -108.98631 | 35255 ft | 517 kts | 81° |
| 2026-04-20 15:33 | 39.95836 | -108.89378 | 35261 ft | 518 kts | 81° |
| 2026-04-20 15:33 | 39.96905 | -108.80183 | 35262 ft | 518 kts | 81° |
| 2026-04-20 15:34 | 39.97971 | -108.70950 | 35265 ft | 516 kts | 81° |
| 2026-04-20 15:34 | 39.99035 | -108.61668 | 35272 ft | 515 kts | 81° |
| 2026-04-20 15:35 | 40.00080 | -108.52492 | 35284 ft | 515 kts | 81° |
| 2026-04-20 15:35 | 40.01125 | -108.43253 | 35291 ft | 515 kts | 81° |
| 2026-04-20 15:36 | 40.02157 | -108.34064 | 35281 ft | 513 kts | 82° |
| 2026-04-20 15:36 | 40.03183 | -108.24865 | 35282 ft | 514 kts | 82° |
| 2026-04-20 15:37 | 40.04204 | -108.15647 | 35291 ft | 514 kts | 82° |
| 2026-04-20 15:37 | 40.05213 | -108.06479 | 35290 ft | 513 kts | 82° |
| 2026-04-20 15:38 | 40.06220 | -107.97284 | 35262 ft | 514 kts | 82° |
| 2026-04-20 15:38 | 40.07704 | -107.88193 | 35235 ft | 514 kts | 73° |
| 2026-04-20 15:39 | 40.09784 | -107.79341 | 35259 ft | 513 kts | 72° |
| 2026-04-20 15:39 | 40.11876 | -107.70410 | 35321 ft | 514 kts | 73° |
| 2026-04-20 15:40 | 40.13937 | -107.61547 | 35365 ft | 513 kts | 73° |
| 2026-04-20 15:40 | 40.15997 | -107.52643 | 35383 ft | 515 kts | 73° |
| 2026-04-20 15:41 | 40.18053 | -107.43712 | 35392 ft | 514 kts | 73° |
| 2026-04-20 15:41 | 40.20110 | -107.34736 | 35395 ft | 515 kts | 73° |
| 2026-04-20 15:42 | 40.22146 | -107.25817 | 35401 ft | 515 kts | 73° |
| 2026-04-20 15:42 | 40.24173 | -107.16897 | 35405 ft | 514 kts | 73° |
| 2026-04-20 15:43 | 40.26194 | -107.07967 | 35429 ft | 515 kts | 73° |
| 2026-04-20 15:43 | 40.28220 | -106.98983 | 35429 ft | 514 kts | 73° |
| 2026-04-20 15:44 | 40.30219 | -106.90080 | 35436 ft | 514 kts | 73° |
| 2026-04-20 15:44 | 40.32223 | -106.81115 | 35427 ft | 515 kts | 73° |
| 2026-04-20 15:45 | 40.34222 | -106.72142 | 35421 ft | 515 kts | 73° |
| 2026-04-20 15:45 | 40.36231 | -106.63083 | 35422 ft | 517 kts | 73° |
| 2026-04-20 15:46 | 40.38208 | -106.54136 | 35427 ft | 517 kts | 73° |
| 2026-04-20 15:46 | 40.40194 | -106.45105 | 35420 ft | 517 kts | 73° |
| 2026-04-20 15:47 | 40.42186 | -106.36016 | 35414 ft | 517 kts | 73° |
| 2026-04-20 15:47 | 40.44153 | -106.26999 | 35401 ft | 518 kts | 74° |
| 2026-04-20 15:48 | 40.46121 | -106.17940 | 35398 ft | 517 kts | 74° |
| 2026-04-20 15:48 | 40.48091 | -106.08834 | 35382 ft | 518 kts | 74° |
| 2026-04-20 15:49 | 40.49951 | -105.99731 | 35387 ft | 519 kts | 79° |
| 2026-04-20 15:49 | 40.51049 | -105.90391 | 35377 ft | 519 kts | 82° |
| 2026-04-20 15:50 | 40.52067 | -105.81117 | 35383 ft | 518 kts | 82° |
| 2026-04-20 15:50 | 40.53087 | -105.71738 | 35383 ft | 519 kts | 82° |
| 2026-04-20 15:51 | 40.54093 | -105.62418 | 35369 ft | 518 kts | 82° |
| 2026-04-20 15:51 | 40.55092 | -105.53085 | 35360 ft | 517 kts | 82° |
| 2026-04-20 15:52 | 40.56084 | -105.43734 | 35350 ft | 516 kts | 82° |
| 2026-04-20 15:52 | 40.57067 | -105.34399 | 35321 ft | 518 kts | 82° |
| 2026-04-20 15:53 | 40.58524 | -105.20422 | 35261 ft | 516 kts | 82° |
| 2026-04-20 15:53 | 40.59484 | -105.11118 | 35224 ft | 516 kts | 82° |
| 2026-04-20 15:54 | 40.60437 | -105.01812 | 35183 ft | 516 kts | 82° |
| 2026-04-20 15:54 | 40.61381 | -104.92514 | 35164 ft | 514 kts | 82° |
| 2026-04-20 15:55 | 40.62319 | -104.83199 | 35206 ft | 516 kts | 82° |
| 2026-04-20 15:55 | 40.63250 | -104.73881 | 35222 ft | 515 kts | 82° |
| 2026-04-20 15:56 | 40.64173 | -104.64565 | 35215 ft | 515 kts | 82° |
| 2026-04-20 15:56 | 40.65083 | -104.55302 | 35232 ft | 516 kts | 82° |
| 2026-04-20 15:57 | 40.65997 | -104.45907 | 35227 ft | 516 kts | 82° |
| 2026-04-20 15:57 | 40.66892 | -104.36638 | 35221 ft | 515 kts | 82° |
| 2026-04-20 15:58 | 40.67788 | -104.27279 | 35212 ft | 514 kts | 83° |
| 2026-04-20 15:58 | 40.68669 | -104.17996 | 35213 ft | 514 kts | 83° |
| 2026-04-20 15:59 | 40.69547 | -104.08665 | 35216 ft | 516 kts | 83° |
| 2026-04-20 15:59 | 40.70414 | -103.99365 | 35215 ft | 514 kts | 83° |
| 2026-04-20 16:00 | 40.71277 | -103.90027 | 35211 ft | 514 kts | 83° |
| 2026-04-20 16:00 | 40.72135 | -103.80661 | 35196 ft | 515 kts | 83° |
| 2026-04-20 16:01 | 40.72980 | -103.71338 | 35185 ft | 515 kts | 83° |
| 2026-04-20 16:01 | 40.73820 | -103.62006 | 35179 ft | 515 kts | 83° |
| 2026-04-20 16:02 | 40.74650 | -103.52686 | 35173 ft | 515 kts | 83° |
| 2026-04-20 16:02 | 40.75474 | -103.43333 | 35169 ft | 513 kts | 83° |
| 2026-04-20 16:03 | 40.76276 | -103.34018 | 35156 ft | 514 kts | 83° |
| 2026-04-20 16:03 | 40.77069 | -103.24713 | 35152 ft | 513 kts | 83° |
| 2026-04-20 16:04 | 40.77858 | -103.15366 | 35141 ft | 513 kts | 83° |
| 2026-04-20 16:04 | 40.78638 | -103.06048 | 35138 ft | 514 kts | 83° |
| 2026-04-20 16:05 | 40.79410 | -102.96729 | 35136 ft | 514 kts | 83° |
| 2026-04-20 16:05 | 40.80179 | -102.87351 | 35137 ft | 514 kts | 83° |
| 2026-04-20 16:06 | 40.80935 | -102.78033 | 35144 ft | 515 kts | 83° |
| 2026-04-20 16:06 | 40.81691 | -102.68635 | 35141 ft | 515 kts | 83° |
| 2026-04-20 16:07 | 40.82436 | -102.59257 | 35136 ft | 514 kts | 83° |
| 2026-04-20 16:07 | 40.82802 | -102.54623 | 35303 ft | 514 kts | 83° |
| 2026-04-20 16:07 | 40.83171 | -102.49931 | 35132 ft | 515 kts | 83° |
| 2026-04-20 16:08 | 40.83903 | -102.40524 | 35119 ft | 516 kts | 83° |
| 2026-04-20 16:08 | 40.84623 | -102.31189 | 35108 ft | 514 kts | 83° |
| 2026-04-20 16:09 | 40.85340 | -102.21782 | 35108 ft | 515 kts | 83° |
| 2026-04-20 16:09 | 40.86045 | -102.12427 | 35109 ft | 514 kts | 83° |
| 2026-04-20 16:10 | 40.86744 | -102.03056 | 35108 ft | 514 kts | 83° |
| 2026-04-20 16:10 | 40.87435 | -101.93684 | 35108 ft | 515 kts | 83° |
| 2026-04-20 16:11 | 40.88119 | -101.84313 | 35097 ft | 515 kts | 83° |
| 2026-04-20 16:11 | 40.88795 | -101.74932 | 35096 ft | 515 kts | 83° |
| 2026-04-20 16:12 | 40.89464 | -101.65549 | 35097 ft | 514 kts | 83° |
| 2026-04-20 16:12 | 40.90125 | -101.56176 | 35097 ft | 515 kts | 83° |
| 2026-04-20 16:13 | 40.90778 | -101.46787 | 35092 ft | 515 kts | 83° |
| 2026-04-20 16:13 | 40.91426 | -101.37377 | 35087 ft | 515 kts | 83° |
| 2026-04-20 16:14 | 40.92065 | -101.27970 | 35076 ft | 514 kts | 83° |
| 2026-04-20 16:14 | 40.92697 | -101.18565 | 35075 ft | 515 kts | 83° |
| 2026-04-20 16:15 | 40.93318 | -101.09203 | 35069 ft | 516 kts | 83° |
| 2026-04-20 16:15 | 40.93934 | -100.99805 | 35072 ft | 515 kts | 83° |
| 2026-04-20 16:16 | 40.94546 | -100.90344 | 35075 ft | 514 kts | 83° |
| 2026-04-20 16:16 | 40.95142 | -100.81000 | 35079 ft | 515 kts | 83° |
| 2026-04-20 16:17 | 40.95735 | -100.71600 | 35082 ft | 515 kts | 83° |
| 2026-04-20 16:17 | 40.96328 | -100.62078 | 35522 ft | 524 kts | 83° |
| 2026-04-20 16:18 | 40.96620 | -100.57336 | 36478 ft | 519 kts | 83° |
| 2026-04-20 16:18 | 40.96911 | -100.52564 | 37078 ft | 519 kts | 83° |
| 2026-04-20 16:18 | 40.97479 | -100.43180 | 37080 ft | 513 kts | 83° |
| 2026-04-20 16:19 | 40.98038 | -100.33817 | 37085 ft | 512 kts | 83° |
| 2026-04-20 16:19 | 40.98594 | -100.24393 | 37083 ft | 513 kts | 83° |
| 2026-04-20 16:20 | 40.99139 | -100.15019 | 37087 ft | 513 kts | 83° |
| 2026-04-20 16:20 | 40.99672 | -100.05700 | 37091 ft | 512 kts | 83° |
| 2026-04-20 16:21 | 41.00205 | -99.96329 | 37088 ft | 514 kts | 83° |
| 2026-04-20 16:21 | 41.00742 | -99.86916 | 37098 ft | 513 kts | 83° |
| 2026-04-20 16:22 | 41.01270 | -99.77545 | 37085 ft | 514 kts | 83° |
| 2026-04-20 16:22 | 41.01791 | -99.68142 | 37073 ft | 514 kts | 82° |
| 2026-04-20 16:23 | 41.02304 | -99.58757 | 37072 ft | 513 kts | 82° |
| 2026-04-20 16:23 | 41.02810 | -99.49342 | 37073 ft | 513 kts | 82° |
| 2026-04-20 16:24 | 41.03306 | -99.39976 | 37070 ft | 513 kts | 82° |
| 2026-04-20 16:24 | 41.03798 | -99.30550 | 37071 ft | 515 kts | 83° |
| 2026-04-20 16:25 | 41.04282 | -99.21104 | 37071 ft | 515 kts | 83° |
| 2026-04-20 16:25 | 41.04759 | -99.11657 | 37070 ft | 515 kts | 83° |
| 2026-04-20 16:26 | 41.05227 | -99.02223 | 37075 ft | 516 kts | 83° |
| 2026-04-20 16:26 | 41.05688 | -98.92783 | 37071 ft | 516 kts | 83° |
| 2026-04-20 16:27 | 41.06142 | -98.83321 | 37077 ft | 515 kts | 82° |
| 2026-04-20 16:27 | 41.06589 | -98.73859 | 37074 ft | 515 kts | 82° |
| 2026-04-20 16:28 | 41.07026 | -98.64437 | 37086 ft | 516 kts | 83° |
| 2026-04-20 16:28 | 41.07453 | -98.55043 | 37083 ft | 516 kts | 82° |
| 2026-04-20 16:29 | 41.07878 | -98.45550 | 37094 ft | 516 kts | 82° |
| 2026-04-20 16:29 | 41.08293 | -98.36096 | 37083 ft | 515 kts | 82° |
| 2026-04-20 16:30 | 41.08699 | -98.26662 | 37081 ft | 516 kts | 83° |
| 2026-04-20 16:30 | 41.09098 | -98.17227 | 37080 ft | 516 kts | 83° |
| 2026-04-20 16:31 | 41.09489 | -98.07783 | 37083 ft | 515 kts | 83° |
| 2026-04-20 16:31 | 41.09875 | -97.98288 | 37078 ft | 516 kts | 83° |
| 2026-04-20 16:32 | 41.10251 | -97.88831 | 37083 ft | 517 kts | 83° |
| 2026-04-20 16:32 | 41.10619 | -97.79384 | 37082 ft | 515 kts | 83° |
| 2026-04-20 16:33 | 41.10979 | -97.69945 | 37088 ft | 517 kts | 82° |
| 2026-04-20 16:33 | 41.11333 | -97.60442 | 37092 ft | 515 kts | 82° |
| 2026-04-20 16:34 | 41.11680 | -97.50956 | 37093 ft | 515 kts | 82° |
| 2026-04-20 16:34 | 41.12015 | -97.41548 | 37097 ft | 516 kts | 82° |
| 2026-04-20 16:35 | 41.12348 | -97.32004 | 37092 ft | 517 kts | 83° |
| 2026-04-20 16:35 | 41.12670 | -97.22537 | 37092 ft | 516 kts | 83° |
| 2026-04-20 16:36 | 41.12984 | -97.13064 | 37101 ft | 516 kts | 83° |
| 2026-04-20 16:36 | 41.13138 | -97.08336 | 36862 ft | 516 kts | 83° |
| 2026-04-20 16:36 | 41.13290 | -97.03633 | 37116 ft | 519 kts | 83° |
| 2026-04-20 16:37 | 41.13591 | -96.94099 | 37116 ft | 517 kts | 83° |
| 2026-04-20 16:37 | 41.13883 | -96.84580 | 37121 ft | 517 kts | 83° |
| 2026-04-20 16:38 | 41.14167 | -96.75088 | 37130 ft | 518 kts | 82° |
| 2026-04-20 16:38 | 41.14444 | -96.65569 | 37139 ft | 518 kts | 82° |
| 2026-04-20 16:39 | 41.14713 | -96.56039 | 37145 ft | 519 kts | 83° |
| 2026-04-20 16:39 | 41.14975 | -96.46516 | 37141 ft | 519 kts | 82° |
| 2026-04-20 16:40 | 41.15227 | -96.37022 | 37141 ft | 519 kts | 82° |
| 2026-04-20 16:40 | 41.15474 | -96.27465 | 37150 ft | 521 kts | 83° |
| 2026-04-20 16:41 | 41.15712 | -96.17900 | 37153 ft | 520 kts | 83° |
| 2026-04-20 16:41 | 41.15943 | -96.08312 | 37156 ft | 520 kts | 83° |
| 2026-04-20 16:42 | 41.16165 | -95.98793 | 37161 ft | 520 kts | 83° |
| 2026-04-20 16:42 | 41.16380 | -95.89205 | 37160 ft | 520 kts | 83° |
| 2026-04-20 16:43 | 41.16586 | -95.79684 | 37170 ft | 522 kts | 83° |
| 2026-04-20 16:43 | 41.17109 | -95.70180 | 37168 ft | 513 kts | 74° |
| 2026-04-20 16:44 | 41.18417 | -95.60896 | 37174 ft | 513 kts | 73° |
| 2026-04-20 16:44 | 41.19716 | -95.51669 | 37165 ft | 512 kts | 73° |
| 2026-04-20 16:45 | 41.20996 | -95.42419 | 37162 ft | 513 kts | 73° |
| 2026-04-20 16:45 | 41.22268 | -95.33119 | 37163 ft | 513 kts | 73° |
| 2026-04-20 16:46 | 41.23527 | -95.23830 | 37167 ft | 514 kts | 74° |
| 2026-04-20 16:46 | 41.24786 | -95.14460 | 37171 ft | 513 kts | 73° |
| 2026-04-20 16:47 | 41.26026 | -95.05160 | 37176 ft | 514 kts | 73° |
| 2026-04-20 16:47 | 41.27259 | -94.95857 | 37174 ft | 514 kts | 73° |
| 2026-04-20 16:48 | 41.28487 | -94.86513 | 37186 ft | 514 kts | 73° |
| 2026-04-20 16:48 | 41.29700 | -94.77234 | 37181 ft | 514 kts | 73° |
| 2026-04-20 16:49 | 41.30914 | -94.67879 | 37186 ft | 512 kts | 73° |
| 2026-04-20 16:49 | 41.32116 | -94.58568 | 37190 ft | 514 kts | 73° |
| 2026-04-20 16:50 | 41.33306 | -94.49270 | 37192 ft | 512 kts | 73° |
| 2026-04-20 16:50 | 41.34493 | -94.39943 | 37194 ft | 512 kts | 73° |
| 2026-04-20 16:51 | 41.35665 | -94.30678 | 37188 ft | 515 kts | 74° |
| 2026-04-20 16:51 | 41.36845 | -94.21275 | 37192 ft | 514 kts | 74° |
| 2026-04-20 16:52 | 41.38010 | -94.11921 | 37196 ft | 512 kts | 73° |
| 2026-04-20 16:52 | 41.39165 | -94.02603 | 37208 ft | 515 kts | 73° |
| 2026-04-20 16:53 | 41.40313 | -93.93261 | 37224 ft | 513 kts | 73° |
| 2026-04-20 16:53 | 41.41455 | -93.83913 | 37233 ft | 514 kts | 73° |
| 2026-04-20 16:54 | 41.42588 | -93.74560 | 37244 ft | 511 kts | 73° |
| 2026-04-20 16:54 | 41.43718 | -93.65185 | 37242 ft | 513 kts | 73° |
| 2026-04-20 16:55 | 41.44679 | -93.55824 | 37244 ft | 513 kts | 75° |
| 2026-04-20 16:55 | 41.45578 | -93.46379 | 37247 ft | 514 kts | 75° |
| 2026-04-20 16:56 | 41.46471 | -93.36996 | 37244 ft | 514 kts | 75° |
| 2026-04-20 16:56 | 41.47364 | -93.27561 | 37240 ft | 514 kts | 76° |
| 2026-04-20 16:57 | 41.48252 | -93.18133 | 37258 ft | 515 kts | 76° |
| 2026-04-20 16:57 | 41.49133 | -93.08714 | 37267 ft | 514 kts | 76° |
| 2026-04-20 16:58 | 41.50008 | -92.99269 | 37269 ft | 516 kts | 76° |
| 2026-04-20 16:58 | 41.50872 | -92.89845 | 37271 ft | 513 kts | 76° |
| 2026-04-20 16:59 | 41.51736 | -92.80381 | 37278 ft | 516 kts | 76° |
| 2026-04-20 16:59 | 41.52588 | -92.70924 | 37261 ft | 515 kts | 76° |
| 2026-04-20 17:00 | 41.53849 | -92.56786 | 37254 ft | 516 kts | 76° |
| 2026-04-20 17:01 | 41.54681 | -92.47340 | 37253 ft | 514 kts | 76° |
| 2026-04-20 17:01 | 41.55504 | -92.37916 | 37265 ft | 513 kts | 76° |
| 2026-04-20 17:02 | 41.56317 | -92.28516 | 37271 ft | 513 kts | 76° |
| 2026-04-20 17:02 | 41.57129 | -92.19038 | 37272 ft | 514 kts | 76° |
| 2026-04-20 17:03 | 41.57925 | -92.09635 | 37280 ft | 512 kts | 76° |
| 2026-04-20 17:03 | 41.58717 | -92.00208 | 37288 ft | 513 kts | 76° |
| 2026-04-20 17:04 | 41.59501 | -91.90773 | 37293 ft | 513 kts | 76° |
| 2026-04-20 17:04 | 41.60276 | -91.81358 | 37295 ft | 514 kts | 76° |
| 2026-04-20 17:05 | 41.61047 | -91.71877 | 37302 ft | 512 kts | 76° |
| 2026-04-20 17:05 | 41.61805 | -91.62483 | 37314 ft | 513 kts | 76° |
| 2026-04-20 17:06 | 41.62557 | -91.53056 | 37321 ft | 513 kts | 76° |
| 2026-04-20 17:06 | 41.63300 | -91.43638 | 37322 ft | 513 kts | 76° |
| 2026-04-20 17:07 | 41.64039 | -91.34181 | 37315 ft | 512 kts | 77° |
| 2026-04-20 17:07 | 41.64771 | -91.24709 | 37299 ft | 514 kts | 77° |
| 2026-04-20 17:08 | 41.65488 | -91.15313 | 37301 ft | 511 kts | 77° |
| 2026-04-20 17:08 | 41.66206 | -91.05820 | 37302 ft | 512 kts | 77° |
| 2026-04-20 17:09 | 41.66907 | -90.96425 | 37304 ft | 512 kts | 77° |
| 2026-04-20 17:09 | 41.67609 | -90.86947 | 37305 ft | 512 kts | 77° |
| 2026-04-20 17:10 | 41.68294 | -90.77557 | 37315 ft | 511 kts | 77° |
| 2026-04-20 17:10 | 41.68979 | -90.68093 | 37322 ft | 512 kts | 77° |
| 2026-04-20 17:11 | 41.69656 | -90.58612 | 37328 ft | 513 kts | 77° |
| 2026-04-20 17:11 | 41.70324 | -90.49152 | 37329 ft | 514 kts | 77° |
| 2026-04-20 17:12 | 41.70984 | -90.39677 | 37341 ft | 512 kts | 77° |
| 2026-04-20 17:12 | 41.71634 | -90.30238 | 37322 ft | 513 kts | 78° |
| 2026-04-20 17:13 | 41.72282 | -90.20720 | 37325 ft | 512 kts | 78° |
| 2026-04-20 17:13 | 41.72919 | -90.11253 | 37315 ft | 515 kts | 78° |
| 2026-04-20 17:14 | 41.73548 | -90.01770 | 37307 ft | 513 kts | 78° |
| 2026-04-20 17:14 | 41.74167 | -89.92326 | 37314 ft | 513 kts | 78° |
| 2026-04-20 17:15 | 41.74784 | -89.82803 | 37318 ft | 515 kts | 78° |
| 2026-04-20 17:15 | 41.75392 | -89.73286 | 37319 ft | 514 kts | 78° |
| 2026-04-20 17:16 | 41.75990 | -89.63801 | 37336 ft | 516 kts | 78° |
| 2026-04-20 17:16 | 41.76581 | -89.54290 | 37309 ft | 513 kts | 78° |
| 2026-04-20 17:17 | 41.77168 | -89.44756 | 37325 ft | 516 kts | 78° |
| 2026-04-20 17:17 | 41.77743 | -89.35227 | 37318 ft | 513 kts | 78° |
| 2026-04-20 17:18 | 41.78314 | -89.25682 | 37300 ft | 515 kts | 78° |
| 2026-04-20 17:18 | 41.78875 | -89.16149 | 37326 ft | 516 kts | 78° |
| 2026-04-20 17:19 | 41.79427 | -89.06647 | 37334 ft | 516 kts | 78° |
| 2026-04-20 17:19 | 41.79974 | -88.97068 | 37337 ft | 514 kts | 78° |
| 2026-04-20 17:20 | 41.80510 | -88.87564 | 37341 ft | 514 kts | 78° |
| 2026-04-20 17:20 | 41.81039 | -88.78041 | 37340 ft | 516 kts | 78° |
| 2026-04-20 17:21 | 41.81560 | -88.68494 | 37339 ft | 514 kts | 78° |
| 2026-04-20 17:21 | 41.82076 | -88.58934 | 37344 ft | 516 kts | 78° |
| 2026-04-20 17:22 | 41.82472 | -88.51466 | 37348 ft | 515 kts | 78° |
| 2026-04-20 17:22 | 41.83070 | -88.40039 | 37338 ft | 516 kts | 78° |
| 2026-04-20 17:23 | 41.83559 | -88.30507 | 37337 ft | 516 kts | 79° |
| 2026-04-20 17:23 | 41.84044 | -88.20921 | 37343 ft | 517 kts | 79° |
| 2026-04-20 17:24 | 41.84522 | -88.11303 | 37346 ft | 518 kts | 79° |
| 2026-04-20 17:24 | 41.84991 | -88.01704 | 37335 ft | 520 kts | 79° |
| 2026-04-20 17:25 | 41.85455 | -87.92032 | 37342 ft | 518 kts | 79° |
| 2026-04-20 17:25 | 41.85907 | -87.82434 | 37345 ft | 518 kts | 79° |
| 2026-04-20 17:26 | 41.86351 | -87.72843 | 37335 ft | 518 kts | 79° |
| 2026-04-20 17:26 | 41.86787 | -87.63279 | 37350 ft | 519 kts | 79° |
| 2026-04-20 17:27 | 41.87218 | -87.53612 | 37337 ft | 517 kts | 79° |
| 2026-04-20 17:27 | 41.87636 | -87.44064 | 37340 ft | 519 kts | 79° |
| 2026-04-20 17:28 | 41.88050 | -87.34427 | 37340 ft | 519 kts | 79° |
| 2026-04-20 17:28 | 41.88454 | -87.24837 | 37341 ft | 518 kts | 79° |
| 2026-04-20 17:29 | 41.88852 | -87.15187 | 37349 ft | 518 kts | 79° |
| 2026-04-20 17:29 | 41.89243 | -87.05547 | 37333 ft | 519 kts | 79° |
| 2026-04-20 17:30 | 41.89624 | -86.95922 | 37354 ft | 520 kts | 79° |
| 2026-04-20 17:30 | 41.89995 | -86.86319 | 37348 ft | 518 kts | 79° |
| 2026-04-20 17:31 | 41.90362 | -86.76660 | 37354 ft | 518 kts | 79° |
| 2026-04-20 17:31 | 41.90718 | -86.67069 | 37347 ft | 519 kts | 79° |
| 2026-04-20 17:32 | 41.91068 | -86.57423 | 37350 ft | 520 kts | 79° |
| 2026-04-20 17:32 | 41.91410 | -86.47733 | 37356 ft | 519 kts | 79° |
| 2026-04-20 17:33 | 41.91743 | -86.38124 | 37350 ft | 519 kts | 80° |
| 2026-04-20 17:33 | 41.92071 | -86.28406 | 37339 ft | 521 kts | 81° |
| 2026-04-20 17:34 | 41.92388 | -86.18756 | 37331 ft | 521 kts | 81° |
| 2026-04-20 17:34 | 41.92699 | -86.09054 | 37340 ft | 522 kts | 81° |
| 2026-04-20 17:35 | 41.93000 | -85.99373 | 37340 ft | 520 kts | 81° |
| 2026-04-20 17:35 | 41.93294 | -85.89708 | 37486 ft | 522 kts | 81° |
| 2026-04-20 17:35 | 41.93439 | -85.84827 | 37364 ft | 521 kts | 81° |
| 2026-04-20 17:36 | 41.93578 | -85.80046 | 37345 ft | 518 kts | 81° |
| 2026-04-20 17:36 | 41.93856 | -85.70367 | 37353 ft | 520 kts | 80° |
| 2026-04-20 17:36 | 41.93991 | -85.65557 | 37196 ft | 519 kts | 80° |
| 2026-04-20 17:37 | 41.94125 | -85.60712 | 37425 ft | 523 kts | 80° |
| 2026-04-20 17:37 | 41.94387 | -85.50995 | 37363 ft | 522 kts | 81° |
| 2026-04-20 17:38 | 41.94642 | -85.41266 | 37363 ft | 520 kts | 80° |
| 2026-04-20 17:38 | 41.94887 | -85.31584 | 37366 ft | 523 kts | 81° |
| 2026-04-20 17:39 | 41.95072 | -85.21835 | 37352 ft | 525 kts | 83° |
| 2026-04-20 17:39 | 41.95065 | -85.12083 | 37358 ft | 527 kts | 83° |
| 2026-04-20 17:40 | 41.95036 | -85.02251 | 37358 ft | 525 kts | 83° |
| 2026-04-20 17:40 | 41.95000 | -84.92498 | 37362 ft | 525 kts | 83° |
| 2026-04-20 17:41 | 41.94953 | -84.82670 | 37345 ft | 526 kts | 83° |
| 2026-04-20 17:41 | 41.94899 | -84.72916 | 37348 ft | 528 kts | 83° |
| 2026-04-20 17:42 | 41.94835 | -84.63108 | 37357 ft | 525 kts | 83° |
| 2026-04-20 17:42 | 41.94764 | -84.53323 | 37355 ft | 528 kts | 84° |
| 2026-04-20 17:43 | 41.94682 | -84.43493 | 37354 ft | 528 kts | 84° |
| 2026-04-20 17:43 | 41.94593 | -84.33636 | 37344 ft | 528 kts | 84° |
| 2026-04-20 17:44 | 41.94495 | -84.23859 | 37335 ft | 526 kts | 84° |
| 2026-04-20 17:44 | 41.94390 | -84.14030 | 37337 ft | 529 kts | 84° |
| 2026-04-20 17:45 | 41.94275 | -84.04188 | 37343 ft | 527 kts | 84° |
| 2026-04-20 17:45 | 41.94153 | -83.94385 | 37350 ft | 530 kts | 84° |
| 2026-04-20 17:46 | 41.94021 | -83.84592 | 37351 ft | 526 kts | 84° |
| 2026-04-20 17:46 | 41.93883 | -83.74770 | 37341 ft | 530 kts | 84° |
| 2026-04-20 17:47 | 41.93734 | -83.64871 | 37353 ft | 528 kts | 85° |
| 2026-04-20 17:47 | 41.93579 | -83.55089 | 37368 ft | 530 kts | 85° |
| 2026-04-20 17:48 | 41.93444 | -83.45194 | 37367 ft | 527 kts | 84° |
| 2026-04-20 17:48 | 41.93415 | -83.35370 | 37367 ft | 528 kts | 84° |
| 2026-04-20 17:49 | 41.93375 | -83.25568 | 37361 ft | 529 kts | 84° |
| 2026-04-20 17:49 | 41.93325 | -83.15705 | 37352 ft | 532 kts | 85° |
| 2026-04-20 17:50 | 41.93263 | -83.05804 | 37359 ft | 534 kts | 85° |
| 2026-04-20 17:50 | 41.93190 | -82.95945 | 37341 ft | 529 kts | 85° |
| 2026-04-20 17:51 | 41.93109 | -82.86116 | 37356 ft | 530 kts | 85° |
| 2026-04-20 17:51 | 41.93020 | -82.76292 | 37351 ft | 529 kts | 85° |
| 2026-04-20 17:52 | 41.92923 | -82.66466 | 37357 ft | 529 kts | 85° |
| 2026-04-20 17:52 | 41.92816 | -82.56511 | 37361 ft | 531 kts | 85° |
| 2026-04-20 17:53 | 41.92700 | -82.46657 | 37365 ft | 531 kts | 85° |
| 2026-04-20 17:53 | 41.92577 | -82.36768 | 37365 ft | 533 kts | 85° |
| 2026-04-20 17:54 | 41.92445 | -82.26923 | 37373 ft | 534 kts | 86° |
| 2026-04-20 17:54 | 41.92303 | -82.16968 | 37364 ft | 536 kts | 86° |
| 2026-04-20 17:55 | 41.92152 | -82.07014 | 37362 ft | 534 kts | 86° |
| 2026-04-20 17:55 | 41.91993 | -81.97050 | 37368 ft | 538 kts | 86° |
| 2026-04-20 17:56 | 41.91825 | -81.87130 | 37352 ft | 534 kts | 86° |
| 2026-04-20 17:56 | 41.91236 | -81.77138 | 37358 ft | 538 kts | 92° |
| 2026-04-20 17:57 | 41.90360 | -81.67231 | 37357 ft | 538 kts | 92° |
| 2026-04-20 17:57 | 41.89471 | -81.57307 | 37373 ft | 536 kts | 92° |
| 2026-04-20 17:58 | 41.88573 | -81.47369 | 37367 ft | 536 kts | 92° |
| 2026-04-20 17:58 | 41.87671 | -81.37470 | 37372 ft | 537 kts | 92° |
| 2026-04-20 17:59 | 41.86763 | -81.27593 | 37362 ft | 537 kts | 93° |
| 2026-04-20 17:59 | 41.85848 | -81.17742 | 37362 ft | 538 kts | 93° |
| 2026-04-20 18:00 | 41.84914 | -81.07783 | 37350 ft | 535 kts | 93° |
| 2026-04-20 18:00 | 41.83980 | -80.97913 | 37351 ft | 537 kts | 94° |
| 2026-04-20 18:01 | 41.83032 | -80.87984 | 37354 ft | 540 kts | 94° |
| 2026-04-20 18:01 | 41.82074 | -80.78053 | 37356 ft | 540 kts | 94° |
| 2026-04-20 18:02 | 41.81107 | -80.68118 | 37358 ft | 540 kts | 94° |
| 2026-04-20 18:02 | 41.80136 | -80.58237 | 37357 ft | 539 kts | 94° |
| 2026-04-20 18:03 | 41.79152 | -80.48303 | 37347 ft | 540 kts | 94° |
| 2026-04-20 18:03 | 41.78152 | -80.38304 | 37327 ft | 539 kts | 95° |
| 2026-04-20 18:04 | 41.77152 | -80.28389 | 37322 ft | 541 kts | 95° |
| 2026-04-20 18:04 | 41.76143 | -80.18484 | 37332 ft | 541 kts | 95° |
| 2026-04-20 18:05 | 41.74607 | -80.03565 | 37317 ft | 541 kts | 95° |
| 2026-04-20 18:05 | 41.73572 | -79.93607 | 37303 ft | 540 kts | 96° |
| 2026-04-20 18:06 | 41.72528 | -79.83661 | 37305 ft | 542 kts | 96° |
| 2026-04-20 18:06 | 41.71481 | -79.73767 | 37295 ft | 541 kts | 96° |
| 2026-04-20 18:07 | 41.70423 | -79.63854 | 37296 ft | 541 kts | 96° |
| 2026-04-20 18:07 | 41.69354 | -79.53925 | 37292 ft | 540 kts | 95° |
| 2026-04-20 18:08 | 41.68278 | -79.44003 | 37276 ft | 541 kts | 96° |
| 2026-04-20 18:08 | 41.67195 | -79.34110 | 37263 ft | 541 kts | 96° |
| 2026-04-20 18:09 | 41.66109 | -79.24259 | 37239 ft | 541 kts | 96° |
| 2026-04-20 18:09 | 41.64999 | -79.14287 | 37237 ft | 541 kts | 96° |
| 2026-04-20 18:10 | 41.63890 | -79.04401 | 37247 ft | 540 kts | 96° |
| 2026-04-20 18:10 | 41.62774 | -78.94527 | 37236 ft | 540 kts | 97° |
| 2026-04-20 18:11 | 41.61648 | -78.84654 | 37236 ft | 540 kts | 96° |
| 2026-04-20 18:11 | 41.60514 | -78.74780 | 37225 ft | 540 kts | 97° |
| 2026-04-20 18:12 | 41.59370 | -78.64903 | 37221 ft | 539 kts | 97° |
| 2026-04-20 18:12 | 41.58217 | -78.55012 | 37219 ft | 541 kts | 97° |
| 2026-04-20 18:13 | 41.57059 | -78.45171 | 37214 ft | 541 kts | 97° |
| 2026-04-20 18:13 | 41.55888 | -78.35278 | 37093 ft | 543 kts | 97° |
| 2026-04-20 18:14 | 41.55327 | -78.30566 | 36923 ft | 535 kts | 98° |
| 2026-04-20 18:14 | 41.54745 | -78.25708 | 36847 ft | 520 kts | 98° |
| 2026-04-20 18:14 | 41.54184 | -78.21035 | 36583 ft | 511 kts | 98° |
| 2026-04-20 18:14 | 41.53618 | -78.16334 | 36362 ft | 520 kts | 98° |
| 2026-04-20 18:15 | 41.53038 | -78.11522 | 36126 ft | 526 kts | 98° |
| 2026-04-20 18:15 | 41.52461 | -78.06769 | 35905 ft | 522 kts | 98° |
| 2026-04-20 18:15 | 41.51879 | -78.01992 | 35682 ft | 520 kts | 98° |
| 2026-04-20 18:15 | 41.51301 | -77.97260 | 35462 ft | 519 kts | 98° |
| 2026-04-20 18:16 | 41.50681 | -77.92552 | 35239 ft | 520 kts | 99° |
| 2026-04-20 18:16 | 41.50016 | -77.87872 | 35019 ft | 519 kts | 99° |
| 2026-04-20 18:16 | 41.49342 | -77.83151 | 34797 ft | 519 kts | 99° |
| 2026-04-20 18:16 | 41.48667 | -77.78429 | 34575 ft | 519 kts | 99° |
| 2026-04-20 18:17 | 41.47997 | -77.73744 | 34357 ft | 520 kts | 99° |
| 2026-04-20 18:17 | 41.47316 | -77.68992 | 34141 ft | 520 kts | 99° |
| 2026-04-20 18:17 | 41.46639 | -77.64277 | 33921 ft | 520 kts | 99° |
| 2026-04-20 18:17 | 41.45965 | -77.59589 | 33706 ft | 520 kts | 100° |
| 2026-04-20 18:18 | 41.45283 | -77.54858 | 33470 ft | 521 kts | 99° |
| 2026-04-20 18:18 | 41.44597 | -77.50110 | 33082 ft | 523 kts | 99° |
| 2026-04-20 18:18 | 41.43917 | -77.45422 | 32730 ft | 522 kts | 100° |
| 2026-04-20 18:18 | 41.43227 | -77.40669 | 32364 ft | 520 kts | 100° |
| 2026-04-20 18:19 | 41.42545 | -77.35997 | 32015 ft | 518 kts | 99° |
| 2026-04-20 18:19 | 41.41856 | -77.31276 | 31624 ft | 518 kts | 100° |
| 2026-04-20 18:19 | 41.41172 | -77.26614 | 31256 ft | 519 kts | 100° |
| 2026-04-20 18:19 | 41.40474 | -77.21865 | 30886 ft | 518 kts | 100° |
| 2026-04-20 18:20 | 41.39783 | -77.17181 | 30524 ft | 516 kts | 100° |
| 2026-04-20 18:20 | 41.39098 | -77.12550 | 30228 ft | 511 kts | 100° |
| 2026-04-20 18:20 | 41.37729 | -77.03322 | 30382 ft | 508 kts | 100° |
| 2026-04-20 18:21 | 41.37054 | -76.98801 | 30047 ft | 499 kts | 100° |
| 2026-04-20 18:21 | 41.36385 | -76.94327 | 29391 ft | 499 kts | 100° |
| 2026-04-20 18:21 | 41.35709 | -76.89818 | 28753 ft | 498 kts | 100° |
| 2026-04-20 18:21 | 41.35036 | -76.85342 | 28272 ft | 492 kts | 100° |
| 2026-04-20 18:22 | 41.34366 | -76.80904 | 27834 ft | 484 kts | 100° |
| 2026-04-20 18:22 | 41.33566 | -76.76603 | 27343 ft | 478 kts | 107° |
| 2026-04-20 18:22 | 41.32512 | -76.72489 | 26847 ft | 473 kts | 108° |
| 2026-04-20 18:22 | 41.31426 | -76.68398 | 26263 ft | 468 kts | 108° |
| 2026-04-20 18:23 | 41.30343 | -76.64342 | 25686 ft | 463 kts | 108° |
| 2026-04-20 18:23 | 41.29275 | -76.60349 | 25124 ft | 456 kts | 108° |
| 2026-04-20 18:23 | 41.28222 | -76.56415 | 24569 ft | 450 kts | 108° |
| 2026-04-20 18:23 | 41.27177 | -76.52520 | 23922 ft | 445 kts | 108° |
| 2026-04-20 18:24 | 41.26152 | -76.48704 | 23204 ft | 443 kts | 109° |
| 2026-04-20 18:24 | 41.25118 | -76.44862 | 22466 ft | 440 kts | 109° |
| 2026-04-20 18:24 | 41.24102 | -76.41092 | 21791 ft | 437 kts | 109° |
| 2026-04-20 18:24 | 41.23083 | -76.37316 | 21106 ft | 433 kts | 109° |
| 2026-04-20 18:25 | 41.22063 | -76.33546 | 20425 ft | 430 kts | 110° |
| 2026-04-20 18:25 | 41.21061 | -76.29844 | 19735 ft | 427 kts | 110° |
| 2026-04-20 18:25 | 41.20064 | -76.26168 | 19045 ft | 424 kts | 110° |
| 2026-04-20 18:25 | 41.19089 | -76.22580 | 18399 ft | 420 kts | 110° |
| 2026-04-20 18:26 | 41.18110 | -76.18979 | 18197 ft | 416 kts | 110° |
| 2026-04-20 18:26 | 41.17119 | -76.15343 | 18183 ft | 418 kts | 110° |
| 2026-04-20 18:26 | 41.16134 | -76.11733 | 18202 ft | 420 kts | 110° |
| 2026-04-20 18:26 | 41.15140 | -76.08098 | 18192 ft | 419 kts | 110° |
| 2026-04-20 18:27 | 41.14145 | -76.04462 | 18190 ft | 419 kts | 110° |
| 2026-04-20 18:27 | 41.13153 | -76.00845 | 18186 ft | 418 kts | 110° |
| 2026-04-20 18:27 | 41.12158 | -75.97221 | 18139 ft | 419 kts | 110° |
| 2026-04-20 18:27 | 41.11160 | -75.93591 | 17481 ft | 425 kts | 110° |
| 2026-04-20 18:28 | 41.10157 | -75.89949 | 16695 ft | 422 kts | 110° |
| 2026-04-20 18:28 | 41.09155 | -75.86316 | 16172 ft | 410 kts | 110° |
| 2026-04-20 18:28 | 41.08194 | -75.82835 | 15815 ft | 401 kts | 110° |
| 2026-04-20 18:28 | 41.07239 | -75.79382 | 15492 ft | 402 kts | 110° |
| 2026-04-20 18:29 | 41.06274 | -75.75897 | 15150 ft | 399 kts | 110° |
| 2026-04-20 18:29 | 41.05327 | -75.72482 | 14808 ft | 397 kts | 110° |
| 2026-04-20 18:29 | 41.04385 | -75.69087 | 14486 ft | 397 kts | 110° |
| 2026-04-20 18:29 | 41.03430 | -75.65653 | 14155 ft | 395 kts | 110° |
| 2026-04-20 18:30 | 41.02494 | -75.62294 | 13815 ft | 391 kts | 110° |
| 2026-04-20 18:30 | 41.01551 | -75.58910 | 13523 ft | 384 kts | 110° |
| 2026-04-20 18:30 | 41.00654 | -75.55692 | 13328 ft | 366 kts | 110° |
| 2026-04-20 18:30 | 40.99792 | -75.52603 | 13040 ft | 357 kts | 110° |
| 2026-04-20 18:31 | 40.98928 | -75.49511 | 12373 ft | 359 kts | 110° |
| 2026-04-20 18:31 | 40.98067 | -75.46435 | 11811 ft | 357 kts | 110° |
| 2026-04-20 18:31 | 40.97213 | -75.43388 | 11407 ft | 350 kts | 110° |
| 2026-04-20 18:31 | 40.96376 | -75.40404 | 10947 ft | 346 kts | 110° |
| 2026-04-20 18:32 | 40.95542 | -75.37435 | 10401 ft | 345 kts | 110° |
| 2026-04-20 18:32 | 40.94707 | -75.34467 | 9933 ft | 339 kts | 110° |
| 2026-04-20 18:32 | 40.93910 | -75.31632 | 9723 ft | 322 kts | 110° |
| 2026-04-20 18:32 | 40.93150 | -75.28934 | 9633 ft | 305 kts | 110° |
| 2026-04-20 18:33 | 40.92424 | -75.26364 | 9500 ft | 294 kts | 110° |
| 2026-04-20 18:33 | 40.91713 | -75.23842 | 9110 ft | 294 kts | 110° |
| 2026-04-20 18:33 | 40.90996 | -75.21309 | 8752 ft | 293 kts | 110° |
| 2026-04-20 18:33 | 40.90287 | -75.18804 | 8458 ft | 289 kts | 110° |
| 2026-04-20 18:34 | 40.89585 | -75.16324 | 8200 ft | 291 kts | 110° |
| 2026-04-20 18:34 | 40.88874 | -75.13814 | 7933 ft | 291 kts | 110° |
| 2026-04-20 18:34 | 40.88171 | -75.11338 | 7667 ft | 287 kts | 110° |
| 2026-04-20 18:34 | 40.87477 | -75.08886 | 7422 ft | 287 kts | 110° |
| 2026-04-20 18:35 | 40.86782 | -75.06419 | 7209 ft | 286 kts | 110° |
| 2026-04-20 18:35 | 40.86086 | -75.03951 | 7009 ft | 284 kts | 109° |
| 2026-04-20 18:35 | 40.85395 | -75.01505 | 6970 ft | 285 kts | 110° |
| 2026-04-20 18:35 | 40.84703 | -74.99056 | 6964 ft | 286 kts | 110° |
| 2026-04-20 18:36 | 40.84016 | -74.96629 | 6960 ft | 286 kts | 110° |
| 2026-04-20 18:36 | 40.83310 | -74.94140 | 6962 ft | 286 kts | 110° |
| 2026-04-20 18:36 | 40.82620 | -74.91704 | 6958 ft | 285 kts | 109° |
| 2026-04-20 18:36 | 40.81887 | -74.89269 | 6951 ft | 285 kts | 119° |
| 2026-04-20 18:37 | 40.80603 | -74.87265 | 6951 ft | 284 kts | 141° |
| 2026-04-20 18:37 | 40.79018 | -74.85763 | 6959 ft | 285 kts | 147° |
| 2026-04-20 18:37 | 40.77377 | -74.84317 | 6961 ft | 284 kts | 148° |
| 2026-04-20 18:37 | 40.75727 | -74.82873 | 6965 ft | 284 kts | 148° |
| 2026-04-20 18:38 | 40.74073 | -74.81422 | 6963 ft | 283 kts | 148° |
| 2026-04-20 18:38 | 40.72446 | -74.79994 | 6969 ft | 284 kts | 148° |
| 2026-04-20 18:38 | 40.70766 | -74.78522 | 6862 ft | 288 kts | 148° |
| 2026-04-20 18:38 | 40.69126 | -74.77087 | 6618 ft | 285 kts | 148° |
| 2026-04-20 18:39 | 40.67471 | -74.75641 | 6358 ft | 282 kts | 148° |
| 2026-04-20 18:39 | 40.65834 | -74.74214 | 6110 ft | 284 kts | 147° |
| 2026-04-20 18:39 | 40.64180 | -74.72780 | 5855 ft | 283 kts | 148° |
| 2026-04-20 18:39 | 40.62552 | -74.71308 | 5584 ft | 284 kts | 139° |
| 2026-04-20 18:40 | 40.61314 | -74.69332 | 5329 ft | 283 kts | 123° |
| 2026-04-20 18:40 | 40.60221 | -74.67161 | 5075 ft | 283 kts | 122° |
| 2026-04-20 18:40 | 40.59164 | -74.65045 | 4826 ft | 282 kts | 122° |
| 2026-04-20 18:40 | 40.58068 | -74.62856 | 4571 ft | 281 kts | 122° |
| 2026-04-20 18:41 | 40.56997 | -74.60723 | 4321 ft | 280 kts | 122° |
| 2026-04-20 18:41 | 40.55919 | -74.58591 | 4067 ft | 279 kts | 122° |
| 2026-04-20 18:41 | 40.54840 | -74.56458 | 3813 ft | 276 kts | 122° |
| 2026-04-20 18:41 | 40.53795 | -74.54388 | 3559 ft | 273 kts | 122° |
| 2026-04-20 18:42 | 40.52751 | -74.52324 | 3308 ft | 270 kts | 122° |
| 2026-04-20 18:42 | 40.51719 | -74.50283 | 3096 ft | 265 kts | 122° |
| 2026-04-20 18:42 | 40.50709 | -74.48293 | 2992 ft | 257 kts | 122° |
| 2026-04-20 18:42 | 40.49736 | -74.46385 | 2977 ft | 243 kts | 122° |
| 2026-04-20 18:43 | 40.48818 | -74.44591 | 2964 ft | 235 kts | 122° |
| 2026-04-20 18:43 | 40.47909 | -74.42814 | 2964 ft | 234 kts | 122° |
| 2026-04-20 18:43 | 40.47001 | -74.41035 | 2970 ft | 235 kts | 122° |
| 2026-04-20 18:43 | 40.46112 | -74.39275 | 2964 ft | 229 kts | 118° |
| 2026-04-20 18:44 | 40.45710 | -74.37332 | 2947 ft | 213 kts | 82° |
| 2026-04-20 18:44 | 40.46134 | -74.35569 | 2954 ft | 203 kts | 58° |
| 2026-04-20 18:44 | 40.46780 | -74.33928 | 2961 ft | 201 kts | 58° |
| 2026-04-20 18:44 | 40.47416 | -74.32318 | 2963 ft | 200 kts | 58° |
| 2026-04-20 18:45 | 40.48076 | -74.30697 | 2964 ft | 199 kts | 53° |
| 2026-04-20 18:45 | 40.49002 | -74.29388 | 2961 ft | 195 kts | 32° |
| 2026-04-20 18:45 | 40.50155 | -74.28473 | 2962 ft | 190 kts | 23° |
| 2026-04-20 18:45 | 40.51344 | -74.27717 | 2962 ft | 190 kts | 20° |
| 2026-04-20 18:46 | 40.52540 | -74.26987 | 2965 ft | 189 kts | 20° |
| 2026-04-20 18:46 | 40.53715 | -74.26266 | 2962 ft | 183 kts | 20° |
| 2026-04-20 18:46 | 40.54867 | -74.25549 | 2866 ft | 183 kts | 21° |
| 2026-04-20 18:46 | 40.56010 | -74.24829 | 2631 ft | 178 kts | 21° |
| 2026-04-20 18:47 | 40.57107 | -74.24139 | 2400 ft | 175 kts | 21° |
| 2026-04-20 18:47 | 40.58221 | -74.23438 | 2165 ft | 176 kts | 21° |
| 2026-04-20 18:47 | 40.59328 | -74.22739 | 1931 ft | 175 kts | 20° |
| 2026-04-20 18:47 | 40.60424 | -74.22050 | 1699 ft | 172 kts | 21° |
| 2026-04-20 18:48 | 40.61499 | -74.21371 | 1466 ft | 167 kts | 20° |
| 2026-04-20 18:48 | 40.62514 | -74.20732 | 1263 ft | 154 kts | 20° |
| 2026-04-20 18:48 | 40.63417 | -74.20161 | 1064 ft | 136 kts | 19° |
| 2026-04-20 18:48 | 40.64252 | -74.19637 | 889 ft | 130 kts | 20° |
| 2026-04-20 18:49 | 40.65072 | -74.19119 | 714 ft | 128 kts | 20° |
| 2026-04-20 18:49 | 40.65883 | -74.18604 | 526 ft | 128 kts | 20° |
| 2026-04-20 18:49 | 40.66678 | -74.18090 | 326 ft | 127 kts | 19° |
| 2026-04-20 18:49 | 40.67490 | -74.17598 | 170 ft | 127 kts | 20° |
| 2026-04-20 18:50 | 40.68277 | -74.17089 | 32 ft | 121 kts | 21° |
| 2026-04-20 18:50 | 40.68892 | -74.16704 | 31 ft | 72 kts | 25° |
| 2026-04-20 18:50 | 40.69230 | -74.16489 | 31 ft | 31 kts | 26° |
| 2026-04-20 18:50 | 40.69387 | -74.16449 | 31 ft | 20 kts | 355° |
| 2026-04-20 18:51 | 40.69483 | -74.16460 | 31 ft | 11 kts | 355° |
| 2026-04-20 18:51 | 40.69577 | -74.16470 | 31 ft | 13 kts | 355° |
| 2026-04-20 18:51 | 40.69667 | -74.16434 | 31 ft | 14 kts | 26° |
| 2026-04-20 18:51 | 40.69757 | -74.16375 | 31 ft | 14 kts | 26° |
| 2026-04-20 18:52 | 40.69849 | -74.16316 | 31 ft | 14 kts | 26° |
| 2026-04-20 18:52 | 40.69942 | -74.16258 | 31 ft | 14 kts | 25° |
| 2026-04-20 18:52 | 40.70011 | -74.16215 | 31 ft | 7 kts | 17° |
| 2026-04-20 18:52 | 40.70048 | -74.16248 | 31 ft | 7 kts | 286° |
| 2026-04-20 18:53 | 40.70055 | -74.16328 | 31 ft | 9 kts | 275° |
| 2026-04-20 18:53 | 40.70062 | -74.16414 | 31 ft | 9 kts | 276° |
| 2026-04-20 18:53 | 40.70069 | -74.16509 | 31 ft | 10 kts | 275° |
| 2026-04-20 18:53 | 40.70076 | -74.16609 | 31 ft | 11 kts | 274° |
| 2026-04-20 18:54 | 40.70083 | -74.16716 | 31 ft | 12 kts | 275° |
| 2026-04-20 18:54 | 40.70090 | -74.16827 | 31 ft | 12 kts | 275° |
| 2026-04-20 18:54 | 40.70098 | -74.16943 | 31 ft | 12 kts | 275° |
| 2026-04-20 18:54 | 40.70105 | -74.17060 | 31 ft | 13 kts | 275° |
| 2026-04-20 18:55 | 40.70114 | -74.17181 | 31 ft | 13 kts | 276° |
| 2026-04-20 18:55 | 40.70116 | -74.17214 | 31 ft | 3 kts | 275° |
| 2026-04-20 18:55 | 40.70119 | -74.17252 | 31 ft | 5 kts | 275° |
| 2026-04-20 18:55 | 40.70125 | -74.17351 | 31 ft | 12 kts | 275° |
| 2026-04-20 18:56 | 40.70132 | -74.17466 | 31 ft | 12 kts | 275° |
| 2026-04-20 18:56 | 40.70140 | -74.17585 | 31 ft | 13 kts | 275° |
| 2026-04-20 18:56 | 40.70130 | -74.17655 | 31 ft | 6 kts | 218° |
| 2026-04-20 18:56 | 40.70077 | -74.17667 | 31 ft | 8 kts | 185° |
| 2026-04-20 18:57 | 40.70010 | -74.17674 | 31 ft | 10 kts | 185° |
| 2026-04-20 18:57 | 40.69938 | -74.17648 | 31 ft | 11 kts | 147° |
| 2026-04-20 18:57 | 40.69890 | -74.17623 | 31 ft | 7 kts | 164° |
| 2026-04-20 18:57 | 40.69861 | -74.17610 | 31 ft | 4 kts | 161° |
| 2026-04-20 18:58 | 40.69823 | -74.17593 | 31 ft | 7 kts | 161° |
| 2026-04-20 18:58 | 40.69800 | -74.17577 | 31 ft | 2 kts | 142° |
| 2026-04-20 18:58 | 40.69790 | -74.17566 | 31 ft | 0 kts | 141° |